Information Last Ob Photographs Calibration Meteogram Network Table Neighbors Monthly Summaries Observation History Wind Roses Custom Wind Roses Data Calendar Satellite Cloud Product Download

Satellite Cloud Product

NESDIS produces a Satellite Cloud Product (SCP) that supplements the ASOS ceilometer readings. This page merges the SCP data with the METAR observations for a given UTC date. Cloud level values are presented in feet above ground level. ECA represents estimated cloud amount expressed in percentage. An IEM Web Service provided the following JSON dataset for this page. Data is available for some sites back to 1993.

Year: Month: Day: Time Order:

 

SCP Valid UTCSatellite East SounderSatellite West SounderASOS METAR Report
Mid CloudsHigh CloudsLevels [ft]ECA [%]Mid CloudsHigh CloudsLevels [ft]ECA [%]Levels ftMETAR
0050ZCLR-0SCT17000 - 200000CLR KHNR 230055Z AUTO 33012KT 10SM CLR 08/01 A2990 RMK A01
0150ZCLR-0CLR-0CLR KHNR 230155Z AUTO 32010KT 10SM CLR 06/M00 A2992 RMK A01
0250ZCLR-0CLR-0CLR KHNR 230255Z AUTO 31011KT 10SM CLR 03/M01 A2992 RMK A01
0350ZCLR-0CLR-0CLR KHNR 230355Z AUTO 32010KT 10SM CLR 03/M01 A2993 RMK A01
0450ZCLR-0CLR-0CLR KHNR 230455Z AUTO 31009KT 10SM CLR 01/M02 A2993 RMK A01
0550ZCLR-0CLR-0CLR KHNR 230555Z AUTO 32004KT 10SM CLR M01/M03 A2993 RMK A01
0650ZCLR-0CLR-0CLR KHNR 230655Z AUTO 22003KT 10SM CLR M02/M03 A2992 RMK A01
0750ZCLR-0CLR-0CLR KHNR 230755Z AUTO 20004KT 10SM CLR M03/M04 A2990 RMK A01
0850ZCLR-0CLR-0CLR KHNR 230855Z AUTO 00000KT 10SM CLR M03/M04 A2989 RMK A01
0950ZCLR-0CLR-0CLR KHNR 230955Z AUTO 26005KT 10SM CLR M02/M02 A2988 RMK A01
1050ZCLR-0CLR-0CLR KHNR 231055Z AUTO 26008KT 10SM CLR M01/M02 A2986 RMK A01
1150ZCLR-0CLR-0CLR KHNR 231155Z AUTO 27013KT 10SM CLR 00/M01 A2986 RMK A01
1250ZCLR-0CLR-0CLR KHNR 231255Z AUTO 28011KT 10SM CLR M00/M02 A2986 RMK A01
1350ZCLR-0CLR-0CLR KHNR 231355Z AUTO 28012KT 10SM CLR 02/M01 A2988 RMK A01
1450ZSCT14000 - 320000SCT13000 - 280000CLR KHNR 231455Z AUTO 29013KT 10SM CLR 06/01 A2988 RMK A01
1550ZSCT13000 - 240001SCT17000 - 210001CLR KHNR 231555Z AUTO 31022KT 10SM CLR 08/M00 A2987 RMK A01
1650ZSCT13000 - 320004SCT13000 - 280005CLR KHNR 231655Z AUTO 31019G24KT 10SM CLR 09/M00 A2988 RMK A01
1750ZSCT19000 - 340003SCT13000 - 340003CLR KHNR 231755Z AUTO 31021G28KT 10SM CLR 11/M03 A2988 RMK A01
1850ZCLR-0CLR-0CLR KHNR 231855Z AUTO 32020G26KT 10SM CLR 12/M03 A2986 RMK A01
1950ZSCT13000 - 330001SCT14000 - 320003CLR KHNR 231955Z AUTO 30018G26KT 10SM CLR 13/M03 A2985 RMK A01
2050ZSCT13000 - 3000023SCT15000 - 3000020CLR KHNR 232055Z AUTO 32017G26KT 10SM CLR 13/M03 A2984 RMK A01
2150ZSCT13000 - 3100013SCT13000 - 3000013CLR KHNR 232155Z AUTO 32018G24KT 10SM CLR 13/M03 A2985 RMK A01